Time;durP1;ratioP1;P1;durP2;ratioP2;P2;SDS_P1;SDS_P2;PMS_P1;PMS_P2;Temp;Humidity;BMP_temperature;BMP_pressure;BME280_temperature;BME280_humidity;BME280_pressure;Samples;Min_cycle;Max_cycle;Signal;HPM_P1;HPM_P2
2023/08/07 00:00:54;;;;;;;0.10;0.10;;;14.00;99.90;;;;;;5005387;28;20179;-80
2023/08/07 00:03:20;;;;;;;0.07;0.07;;;14.00;99.90;;;;;;5005500;28;20184;-80
2023/08/07 00:05:46;;;;;;;0.10;0.10;;;14.10;99.90;;;;;;5005054;28;20693;-80
2023/08/07 00:08:12;;;;;;;0.10;0.10;;;14.10;99.90;;;;;;5005602;28;20672;-80
2023/08/07 00:10:37;;;;;;;0.10;0.10;;;14.10;99.90;;;;;;5022008;28;20199;-80
2023/08/07 00:13:03;;;;;;;0.10;0.10;;;14.10;99.90;;;;;;5006504;28;20229;-80
2023/08/07 00:15:29;;;;;;;0.10;0.10;;;14.10;99.90;;;;;;5005703;28;20357;-80
2023/08/07 00:17:54;;;;;;;0.10;0.10;;;14.10;99.90;;;;;;5006004;28;20186;-80
2023/08/07 00:20:20;;;;;;;0.03;0.03;;;14.10;99.90;;;;;;5006464;28;20224;-80
2023/08/07 00:22:46;;;;;;;0.10;0.10;;;14.10;99.90;;;;;;5005282;28;20175;-80
2023/08/07 00:25:11;;;;;;;0.10;0.10;;;14.10;99.90;;;;;;5005700;28;21285;-80
2023/08/07 00:27:36;;;;;;;0.10;0.10;;;14.10;99.90;;;;;;5005025;28;20177;-80
2023/08/07 00:30:02;;;;;;;0.10;0.10;;;14.10;99.90;;;;;;5005267;28;20677;-80
2023/08/07 00:32:28;;;;;;;0.10;0.10;;;14.10;99.90;;;;;;5003140;28;20190;-80
2023/08/07 00:34:53;;;;;;;0.00;0.00;;;14.10;99.90;;;;;;5006136;28;21133;-80
2023/08/07 00:37:19;;;;;;;0.10;0.10;;;14.20;99.90;;;;;;5005053;28;20748;-80
2023/08/07 00:39:44;;;;;;;0.10;0.10;;;14.20;99.90;;;;;;5004553;28;20201;-80
2023/08/07 00:42:10;;;;;;;0.10;0.10;;;14.20;99.90;;;;;;5005071;28;20188;-80
2023/08/07 00:44:35;;;;;;;0.10;0.10;;;14.20;99.90;;;;;;5004882;28;20527;-80
2023/08/07 00:47:01;;;;;;;0.10;0.10;;;14.20;99.90;;;;;;5004342;28;20209;-80
2023/08/07 00:49:27;;;;;;;0.10;0.10;;;14.20;99.90;;;;;;5005450;28;20229;-80
2023/08/07 00:51:52;;;;;;;0.10;0.10;;;14.20;99.90;;;;;;5005423;28;20217;-80
2023/08/07 00:54:19;;;;;;;0.10;0.10;;;14.10;99.90;;;;;;5005401;28;20185;-79
2023/08/07 00:56:45;;;;;;;0.10;0.10;;;14.10;99.90;;;;;;5004508;28;20300;-80
2023/08/07 00:59:12;;;;;;;0.10;0.10;;;14.10;99.90;;;;;;5004589;28;20326;-80
2023/08/07 01:01:37;;;;;;;0.10;0.10;;;14.10;99.90;;;;;;5020025;28;20298;-79
2023/08/07 01:04:03;;;;;;;0.10;0.10;;;14.10;99.90;;;;;;5003793;28;20823;-80
2023/08/07 01:06:29;;;;;;;0.10;0.10;;;14.10;99.90;;;;;;5004610;28;20211;-80
2023/08/07 01:08:54;;;;;;;0.10;0.10;;;14.10;99.90;;;;;;5004436;28;20186;-80
2023/08/07 01:11:34;;;;;;;0.10;0.10;;;14.10;99.90;;;;;;5005521;28;20192;-80
2023/08/07 01:14:24;;;;;;;0.03;0.03;;;14.10;99.90;;;;;;5006170;28;20655;-80
2023/08/07 01:17:17;;;;;;;0.10;0.10;;;14.10;99.90;;;;;;5019888;28;20221;-80
2023/08/07 01:19:42;;;;;;;0.10;0.10;;;14.10;99.90;;;;;;5005001;28;20589;-80
2023/08/07 01:22:16;;;;;;;0.10;0.10;;;14.10;99.90;;;;;;5003268;28;20192;-80
2023/08/07 01:24:51;;;;;;;0.10;0.10;;;14.10;99.90;;;;;;5004950;28;20192;-80
2023/08/07 01:27:34;;;;;;;0.10;0.10;;;14.00;99.90;;;;;;5019754;28;20195;-80
2023/08/07 01:30:31;;;;;;;0.10;0.10;;;14.00;99.90;;;;;;5019985;28;20568;-80
2023/08/07 01:33:17;;;;;;;0.10;0.10;;;14.00;99.90;;;;;;5019901;28;20282;-80
2023/08/07 01:35:46;;;;;;;0.10;0.10;;;14.00;99.90;;;;;;5019955;28;20312;-80
2023/08/07 01:38:13;;;;;;;0.10;0.10;;;14.00;99.90;;;;;;5003852;28;20232;-80
2023/08/07 01:40:40;;;;;;;0.00;0.00;;;14.00;99.90;;;;;;5004445;28;20244;-80
2023/08/07 01:43:05;;;;;;;0.10;0.10;;;14.10;99.90;;;;;;5019669;28;20199;-80
2023/08/07 01:45:31;;;;;;;0.10;0.10;;;14.10;99.90;;;;;;5005337;28;20205;-79
2023/08/07 01:47:57;;;;;;;0.10;0.10;;;14.10;99.90;;;;;;5020698;28;20668;-80
2023/08/07 01:50:24;;;;;;;0.10;0.10;;;14.10;99.90;;;;;;5019258;28;20200;-80
2023/08/07 01:52:50;;;;;;;0.10;0.10;;;14.10;99.90;;;;;;5003447;28;20199;-79
2023/08/07 01:55:17;;;;;;;0.10;0.10;;;14.10;99.90;;;;;;5003842;28;20213;-79
2023/08/07 01:57:42;;;;;;;0.10;0.10;;;14.10;99.90;;;;;;5003293;28;20281;-80
2023/08/07 02:00:09;;;;;;;0.10;0.10;;;14.10;99.90;;;;;;5003916;28;20299;-80
2023/08/07 02:02:35;;;;;;;0.10;0.10;;;14.10;99.90;;;;;;5003144;28;20184;-80
2023/08/07 02:05:01;;;;;;;0.10;0.10;;;14.10;99.90;;;;;;5003459;28;20219;-80
2023/08/07 02:07:26;;;;;;;0.10;0.10;;;14.00;99.90;;;;;;5003368;28;21315;-80
2023/08/07 02:09:52;;;;;;;0.10;0.10;;;14.10;99.90;;;;;;4998491;28;20211;-80
2023/08/07 02:12:17;;;;;;;0.10;0.10;;;14.00;99.90;;;;;;5006985;28;20199;-80
2023/08/07 02:14:43;;;;;;;0.00;0.00;;;14.00;99.90;;;;;;5001838;28;21277;-80
2023/08/07 02:17:09;;;;;;;0.10;0.10;;;14.00;99.90;;;;;;5004111;28;20199;-81
2023/08/07 02:19:34;;;;;;;0.10;0.10;;;13.90;99.90;;;;;;5001211;28;20692;-80
2023/08/07 02:22:00;;;;;;;0.10;0.10;;;13.90;99.90;;;;;;5001005;28;20237;-80
2023/08/07 02:24:25;;;;;;;0.10;0.10;;;13.90;99.90;;;;;;5002128;28;20176;-80
2023/08/07 02:26:51;;;;;;;0.10;0.10;;;13.90;99.90;;;;;;5002459;28;20211;-80
2023/08/07 02:29:16;;;;;;;0.10;0.10;;;13.90;99.90;;;;;;5018135;28;20266;-80
2023/08/07 02:31:42;;;;;;;0.10;0.10;;;13.90;99.90;;;;;;5002589;28;20727;-80
2023/08/07 02:34:07;;;;;;;0.10;0.10;;;13.80;99.90;;;;;;5017287;28;20609;-80
2023/08/07 02:36:33;;;;;;;0.00;0.00;;;13.80;99.90;;;;;;5001622;28;20690;-80
2023/08/07 02:38:58;;;;;;;0.10;0.10;;;13.80;99.90;;;;;;5001939;28;20207;-80
2023/08/07 02:41:24;;;;;;;0.10;0.10;;;13.80;99.90;;;;;;5001680;28;20179;-80
2023/08/07 02:43:49;;;;;;;0.10;0.10;;;13.80;99.90;;;;;;5000946;28;20210;-80
2023/08/07 02:46:15;;;;;;;0.10;0.10;;;13.80;99.90;;;;;;5001307;28;20303;-80
2023/08/07 02:48:40;;;;;;;0.10;0.10;;;13.70;99.90;;;;;;5000538;28;20641;-80
2023/08/07 02:51:06;;;;;;;0.10;0.10;;;13.70;99.90;;;;;;5003618;28;20206;-80
2023/08/07 02:53:31;;;;;;;0.10;0.10;;;13.80;99.90;;;;;;5002975;28;20188;-80
2023/08/07 02:55:57;;;;;;;0.10;0.10;;;13.80;99.90;;;;;;5003181;28;20697;-80
2023/08/07 02:58:22;;;;;;;0.97;0.93;;;13.80;99.90;;;;;;5004630;28;20192;-80
2023/08/07 03:00:48;;;;;;;0.10;0.10;;;13.80;99.90;;;;;;5006277;28;20216;-80
2023/08/07 03:03:14;;;;;;;0.10;0.10;;;13.70;99.90;;;;;;5006521;28;20203;-80
2023/08/07 03:05:47;;;;;;;0.10;0.10;;;13.70;99.90;;;;;;5021458;28;20210;-80
2023/08/07 03:08:12;;;;;;;0.10;0.10;;;13.70;99.90;;;;;;5021947;28;20192;-80
2023/08/07 03:10:38;;;;;;;0.10;0.10;;;13.70;99.90;;;;;;5005149;28;20536;-80
2023/08/07 03:13:03;;;;;;;0.10;0.10;;;13.70;99.90;;;;;;5004441;28;20657;-80
2023/08/07 03:15:29;;;;;;;0.10;0.10;;;13.70;99.90;;;;;;5005244;28;20250;-80
2023/08/07 03:17:54;;;;;;;0.10;0.10;;;13.70;99.90;;;;;;5005084;28;20564;-80
2023/08/07 03:20:20;;;;;;;0.10;0.10;;;13.70;99.90;;;;;;5005113;28;20293;-80
2023/08/07 03:22:45;;;;;;;0.10;0.10;;;13.70;99.90;;;;;;5005400;28;20657;-80
2023/08/07 03:25:11;;;;;;;0.10;0.10;;;13.70;99.90;;;;;;5004537;28;20219;-80
2023/08/07 03:27:36;;;;;;;0.10;0.10;;;13.70;99.90;;;;;;5003884;28;20187;-80
2023/08/07 03:30:02;;;;;;;0.10;0.10;;;13.70;99.90;;;;;;5006277;28;20568;-80
2023/08/07 03:32:27;;;;;;;0.10;0.10;;;13.70;99.90;;;;;;5003697;28;20217;-80
2023/08/07 03:34:53;;;;;;;0.10;0.10;;;13.70;99.90;;;;;;5020696;28;20195;-80
2023/08/07 03:37:18;;;;;;;0.03;0.03;;;13.70;99.90;;;;;;5004717;28;21295;-80
2023/08/07 03:39:47;;;;;;;0.10;0.10;;;13.70;99.90;;;;;;5005467;28;20274;-80
2023/08/07 03:42:14;;;;;;;0.10;0.10;;;13.80;99.90;;;;;;5004563;28;20187;-80
2023/08/07 03:44:40;;;;;;;0.10;0.10;;;13.80;99.90;;;;;;5005264;28;20187;-80
2023/08/07 03:47:05;;;;;;;0.10;0.10;;;13.80;99.90;;;;;;5019758;28;20195;-80
2023/08/07 03:49:31;;;;;;;0.10;0.10;;;13.90;99.90;;;;;;5004472;28;20195;-80
2023/08/07 03:51:58;;;;;;;0.10;0.10;;;13.90;99.90;;;;;;5004650;28;20230;-80
2023/08/07 03:54:24;;;;;;;0.10;0.10;;;13.90;99.90;;;;;;5006423;28;20210;-80
2023/08/07 03:56:51;;;;;;;0.10;0.10;;;13.80;99.90;;;;;;5005047;28;20688;-80
2023/08/07 03:59:16;;;;;;;0.10;0.10;;;13.80;99.90;;;;;;5006363;28;20206;-80
2023/08/07 04:01:42;;;;;;;0.10;0.10;;;13.90;99.90;;;;;;5005083;28;20249;-80
2023/08/07 04:04:08;;;;;;;0.00;0.00;;;13.90;99.90;;;;;;5005107;28;20202;-80
2023/08/07 04:06:33;;;;;;;0.10;0.10;;;13.90;99.90;;;;;;5004555;28;20205;-80
2023/08/07 04:08:59;;;;;;;0.10;0.10;;;13.80;99.90;;;;;;5005075;28;20404;-81
2023/08/07 04:11:24;;;;;;;0.10;0.10;;;13.80;99.90;;;;;;5006336;28;20275;-80
2023/08/07 04:13:50;;;;;;;0.10;0.10;;;13.80;99.90;;;;;;5006874;28;20191;-80
2023/08/07 04:16:16;;;;;;;0.10;0.10;;;13.80;99.90;;;;;;5002179;28;20218;-80
2023/08/07 04:18:42;;;;;;;0.10;0.10;;;13.80;99.90;;;;;;5006270;28;20233;-80
2023/08/07 04:21:08;;;;;;;0.10;0.10;;;13.80;99.90;;;;;;5006593;28;20191;-80
2023/08/07 04:23:33;;;;;;;0.10;0.10;;;13.80;99.90;;;;;;5007588;28;20218;-80
2023/08/07 04:25:59;;;;;;;0.10;0.10;;;13.70;99.90;;;;;;5004962;28;20253;-80
2023/08/07 04:28:27;;;;;;;0.10;0.10;;;13.70;99.90;;;;;;5005141;28;20184;-80
2023/08/07 04:30:53;;;;;;;0.10;0.10;;;13.70;99.90;;;;;;5018445;28;20187;-79
2023/08/07 04:33:22;;;;;;;0.10;0.10;;;13.70;99.90;;;;;;5003599;28;20190;-80
2023/08/07 04:35:48;;;;;;;0.10;0.10;;;13.70;99.90;;;;;;5003997;28;20214;-80
2023/08/07 04:38:14;;;;;;;0.10;0.10;;;13.70;99.90;;;;;;5006139;28;20191;-80
2023/08/07 04:40:46;;;;;;;0.10;0.10;;;13.70;99.90;;;;;;5005468;28;20936;-80
2023/08/07 04:43:13;;;;;;;0.10;0.10;;;13.70;99.90;;;;;;5020568;28;20349;-80
2023/08/07 04:45:39;;;;;;;0.10;0.10;;;13.70;99.90;;;;;;5007294;28;20210;-80
2023/08/07 04:48:06;;;;;;;0.10;0.10;;;13.80;99.90;;;;;;5006989;28;20202;-80
2023/08/07 04:50:31;;;;;;;2.00;1.90;;;13.80;99.90;;;;;;5004334;28;20213;-80
2023/08/07 04:52:57;;;;;;;0.10;0.10;;;13.90;99.90;;;;;;5004024;28;20191;-80
2023/08/07 04:55:22;;;;;;;0.10;0.10;;;13.90;99.90;;;;;;5005066;28;20249;-79
2023/08/07 04:57:49;;;;;;;0.10;0.10;;;13.90;99.90;;;;;;5004302;28;20602;-80
2023/08/07 05:00:15;;;;;;;0.10;0.10;;;13.90;99.90;;;;;;5005669;28;20207;-79
2023/08/07 05:02:41;;;;;;;0.10;0.10;;;13.90;99.90;;;;;;5021598;28;20218;-80
2023/08/07 05:05:07;;;;;;;0.10;0.10;;;13.90;99.90;;;;;;5003764;28;20241;-80
2023/08/07 05:07:34;;;;;;;0.10;0.10;;;13.90;99.90;;;;;;5004867;28;20484;-80
2023/08/07 05:10:01;;;;;;;0.10;0.10;;;13.90;99.90;;;;;;5005536;28;20198;-80
2023/08/07 05:12:27;;;;;;;0.10;0.10;;;13.90;99.90;;;;;;5007479;28;20902;-81
2023/08/07 05:14:52;;;;;;;0.10;0.10;;;14.00;99.90;;;;;;5007341;28;20184;-81
2023/08/07 05:17:18;;;;;;;0.10;0.10;;;13.90;99.90;;;;;;5003684;28;20207;-81
2023/08/07 05:19:43;;;;;;;0.10;0.10;;;14.00;99.90;;;;;;5005595;28;20199;-80
2023/08/07 05:22:09;;;;;;;0.10;0.10;;;14.00;99.90;;;;;;5004801;28;20192;-81
2023/08/07 05:24:38;;;;;;;0.00;0.00;;;14.00;99.90;;;;;;5005887;28;20638;-81
2023/08/07 05:27:08;;;;;;;0.10;0.10;;;14.00;99.90;;;;;;5006407;28;20197;-81
2023/08/07 05:29:34;;;;;;;0.10;0.10;;;14.00;99.90;;;;;;5021610;28;20195;-81
2023/08/07 05:32:00;;;;;;;0.10;0.10;;;14.00;99.90;;;;;;5006538;28;20236;-81
2023/08/07 05:34:25;;;;;;;0.10;0.10;;;14.00;99.90;;;;;;5007415;28;20188;-81
2023/08/07 05:36:51;;;;;;;0.10;0.10;;;14.10;99.90;;;;;;5006609;28;20253;-81
2023/08/07 05:39:16;;;;;;;0.10;0.10;;;14.00;99.90;;;;;;5006714;28;20245;-81
2023/08/07 05:41:42;;;;;;;0.10;0.10;;;14.00;99.90;;;;;;5005452;28;20205;-81
2023/08/07 05:44:07;;;;;;;0.10;0.10;;;14.00;99.90;;;;;;5005731;28;20187;-82
2023/08/07 05:46:33;;;;;;;0.10;0.10;;;14.00;99.90;;;;;;5008904;28;20207;-83
2023/08/07 05:48:58;;;;;;;0.10;0.10;;;14.00;99.90;;;;;;5009693;28;20194;-82
2023/08/07 05:51:24;;;;;;;0.10;0.10;;;14.10;99.90;;;;;;5008585;28;20210;-84
2023/08/07 05:53:49;;;;;;;0.10;0.10;;;14.20;99.90;;;;;;5007742;28;20573;-81
2023/08/07 05:56:16;;;;;;;0.10;0.10;;;14.20;99.90;;;;;;5007281;28;20207;-81
2023/08/07 05:58:42;;;;;;;0.10;0.10;;;14.20;99.90;;;;;;5015069;28;20192;-81
2023/08/07 06:01:07;;;;;;;0.10;0.10;;;14.30;99.90;;;;;;5015497;28;20269;-81
2023/08/07 06:03:33;;;;;;;0.10;0.10;;;14.20;99.90;;;;;;5015716;28;20203;-81
2023/08/07 06:05:59;;;;;;;0.10;0.10;;;14.30;99.90;;;;;;5013461;28;20218;-81
2023/08/07 06:08:25;;;;;;;0.07;0.07;;;14.30;99.90;;;;;;5015817;28;20181;-80
2023/08/07 06:10:50;;;;;;;0.07;0.07;;;14.20;99.90;;;;;;5015523;28;20188;-81
2023/08/07 06:13:16;;;;;;;0.10;0.10;;;14.30;99.90;;;;;;5015273;28;20251;-81
2023/08/07 06:15:41;;;;;;;0.10;0.10;;;14.30;99.90;;;;;;5015199;28;20204;-81
2023/08/07 06:18:07;;;;;;;0.10;0.10;;;14.30;99.90;;;;;;5011489;28;21136;-80
2023/08/07 06:20:34;;;;;;;0.10;0.10;;;14.30;99.90;;;;;;5004396;28;20203;-81
2023/08/07 06:22:59;;;;;;;0.10;0.10;;;14.40;99.90;;;;;;5007749;28;20184;-81
2023/08/07 06:25:25;;;;;;;0.10;0.10;;;14.40;99.90;;;;;;5004758;28;20255;-80
2023/08/07 06:27:51;;;;;;;0.00;0.00;;;14.50;99.90;;;;;;5003176;28;20191;-80
2023/08/07 06:30:16;;;;;;;0.10;0.10;;;14.60;99.90;;;;;;5004224;28;20193;-81
2023/08/07 06:32:42;;;;;;;0.03;0.03;;;14.60;99.90;;;;;;5019768;28;20197;-81
2023/08/07 06:35:08;;;;;;;0.10;0.10;;;14.60;99.90;;;;;;5004638;28;20234;-80
2023/08/07 06:37:33;;;;;;;0.10;0.10;;;14.70;99.90;;;;;;5004802;28;20262;-80
2023/08/07 06:39:59;;;;;;;0.10;0.10;;;14.60;99.90;;;;;;5002393;28;20209;-81
2023/08/07 06:42:24;;;;;;;0.10;0.10;;;14.60;99.90;;;;;;5002795;28;20261;-82
2023/08/07 06:44:50;;;;;;;0.00;0.00;;;14.60;99.90;;;;;;5002694;28;20185;-81
2023/08/07 06:47:15;;;;;;;0.10;0.10;;;14.60;99.90;;;;;;5002026;28;20179;-81
2023/08/07 06:49:41;;;;;;;0.10;0.10;;;14.70;99.90;;;;;;5003254;28;20204;-81
2023/08/07 06:52:07;;;;;;;0.10;0.10;;;14.70;99.90;;;;;;5001827;28;20211;-80
2023/08/07 06:54:32;;;;;;;0.10;0.10;;;14.60;99.90;;;;;;5002283;28;20195;-81
2023/08/07 06:56:58;;;;;;;0.10;0.10;;;14.70;99.90;;;;;;5000562;28;20205;-81
2023/08/07 06:59:23;;;;;;;0.10;0.10;;;14.70;99.90;;;;;;5001777;28;20218;-81
2023/08/07 07:01:49;;;;;;;0.10;0.10;;;14.80;99.90;;;;;;4999398;28;20180;-81
2023/08/07 07:04:14;;;;;;;0.10;0.10;;;14.90;99.90;;;;;;5001375;28;20262;-79
2023/08/07 07:06:40;;;;;;;0.10;0.10;;;14.90;99.90;;;;;;4998859;28;20228;-81
2023/08/07 07:09:05;;;;;;;0.10;0.10;;;15.00;99.90;;;;;;4998420;28;20592;-80
2023/08/07 07:11:31;;;;;;;0.93;0.93;;;15.00;99.90;;;;;;5005013;28;20234;-80
2023/08/07 07:13:56;;;;;;;0.10;0.10;;;15.00;99.90;;;;;;5005881;28;20277;-81
2023/08/07 07:16:22;;;;;;;0.10;0.10;;;14.90;99.90;;;;;;5007548;28;20681;-81
2023/08/07 07:18:51;;;;;;;0.10;0.10;;;14.90;99.90;;;;;;5005079;28;20177;-80
2023/08/07 07:21:17;;;;;;;0.10;0.10;;;15.00;99.90;;;;;;5007211;28;20184;-80
2023/08/07 07:23:42;;;;;;;0.10;0.10;;;15.00;99.90;;;;;;5006127;28;20182;-81
2023/08/07 07:26:08;;;;;;;0.10;0.10;;;15.00;99.90;;;;;;5020557;28;20212;-81
2023/08/07 07:28:33;;;;;;;0.10;0.10;;;15.00;99.90;;;;;;5004313;28;20276;-81
2023/08/07 07:30:59;;;;;;;0.10;0.10;;;15.10;99.90;;;;;;5002945;28;20780;-81
2023/08/07 07:33:25;;;;;;;0.10;0.10;;;15.10;99.90;;;;;;5003911;28;20275;-80
2023/08/07 07:35:50;;;;;;;0.10;0.10;;;15.10;99.90;;;;;;5004845;28;20212;-81
2023/08/07 07:38:16;;;;;;;0.10;0.10;;;15.10;99.90;;;;;;5002688;28;20207;-81
2023/08/07 07:40:42;;;;;;;0.10;0.10;;;15.20;99.90;;;;;;5002518;28;20248;-81
2023/08/07 07:43:07;;;;;;;0.10;0.10;;;15.10;99.90;;;;;;5027938;28;20212;-81
2023/08/07 07:45:36;;;;;;;0.10;0.10;;;15.10;99.90;;;;;;5010576;28;20211;-80
2023/08/07 07:48:02;;;;;;;0.10;0.10;;;15.10;99.90;;;;;;5011515;28;20195;-81
2023/08/07 07:50:28;;;;;;;0.10;0.10;;;15.20;99.90;;;;;;5009343;28;20849;-80
2023/08/07 07:52:54;;;;;;;0.10;0.10;;;15.30;99.90;;;;;;5025407;28;20197;-79
2023/08/07 07:55:19;;;;;;;0.10;0.10;;;15.40;99.90;;;;;;5010819;28;20282;-81
2023/08/07 07:57:45;;;;;;;0.10;0.10;;;15.40;99.90;;;;;;5008744;28;20217;-81
2023/08/07 08:00:12;;;;;;;0.10;0.10;;;15.40;99.90;;;;;;5007935;28;20220;-81
2023/08/07 08:02:40;;;;;;;0.10;0.10;;;15.40;99.90;;;;;;5022668;28;20197;-80
2023/08/07 08:05:07;;;;;;;0.10;0.10;;;15.40;99.90;;;;;;5007406;28;20235;-80
2023/08/07 08:07:34;;;;;;;0.10;0.10;;;15.50;99.90;;;;;;5007672;28;20327;-80
2023/08/07 08:10:00;;;;;;;0.10;0.10;;;15.50;99.90;;;;;;5008668;28;20194;-82
2023/08/07 08:12:26;;;;;;;0.20;0.20;;;15.50;99.90;;;;;;5022544;28;20186;-81
2023/08/07 08:14:51;;;;;;;0.10;0.10;;;15.60;99.90;;;;;;5006548;28;20188;-80
2023/08/07 08:17:17;;;;;;;0.10;0.10;;;15.50;99.90;;;;;;5005422;28;20281;-80
2023/08/07 08:19:42;;;;;;;0.10;0.10;;;15.70;99.90;;;;;;5021339;28;20271;-80
2023/08/07 08:22:08;;;;;;;0.10;0.10;;;15.60;99.90;;;;;;5005526;28;20198;-81
2023/08/07 08:24:33;;;;;;;0.10;0.10;;;15.70;99.90;;;;;;5003717;28;20185;-81
2023/08/07 08:26:59;;;;;;;0.10;0.10;;;15.70;99.90;;;;;;5004448;28;20691;-83
2023/08/07 08:29:26;;;;;;;0.10;0.10;;;15.80;99.90;;;;;;5003501;28;20563;-81
2023/08/07 08:31:54;;;;;;;0.10;0.10;;;15.80;99.90;;;;;;5005113;28;20209;-81
2023/08/07 08:34:20;;;;;;;0.10;0.10;;;15.80;99.90;;;;;;5005332;28;20769;-82
2023/08/07 08:36:46;;;;;;;0.10;0.10;;;15.90;99.90;;;;;;5004564;28;20315;-80
2023/08/07 08:39:11;;;;;;;0.10;0.10;;;15.90;99.90;;;;;;5005203;28;20214;-81
2023/08/07 08:41:37;;;;;;;0.10;0.10;;;16.00;99.90;;;;;;5003735;28;20186;-82
2023/08/07 08:44:06;;;;;;;0.10;0.10;;;16.10;99.90;;;;;;5004173;28;20261;-83
2023/08/07 08:46:33;;;;;;;0.10;0.10;;;15.90;99.90;;;;;;5004742;28;20213;-83
2023/08/07 08:49:00;;;;;;;0.10;0.10;;;15.90;99.90;;;;;;5010639;28;20186;-82
2023/08/07 08:51:26;;;;;;;0.10;0.10;;;15.90;99.90;;;;;;5027564;28;20285;-81
2023/08/07 08:53:56;;;;;;;0.10;0.10;;;16.10;99.90;;;;;;5010950;28;20212;-83
2023/08/07 08:56:22;;;;;;;0.10;0.10;;;16.00;99.90;;;;;;5008957;28;20215;-82
2023/08/07 08:58:51;;;;;;;0.10;0.10;;;16.10;99.90;;;;;;5009566;28;20182;-82
2023/08/07 09:01:21;;;;;;;0.10;0.10;;;16.00;99.90;;;;;;5010772;28;20195;-82
2023/08/07 09:03:47;;;;;;;0.10;0.10;;;15.80;99.90;;;;;;5010913;28;20188;-82
2023/08/07 09:06:13;;;;;;;0.10;0.10;;;15.70;99.90;;;;;;5009443;28;20198;-82
2023/08/07 09:08:42;;;;;;;0.10;0.10;;;15.70;99.90;;;;;;5024255;28;20186;-83
2023/08/07 09:11:08;;;;;;;0.00;0.00;;;15.60;99.90;;;;;;5008539;28;20682;-83
2023/08/07 09:13:36;;;;;;;0.10;0.10;;;15.60;99.90;;;;;;5021626;28;20185;-82
2023/08/07 09:16:01;;;;;;;0.10;0.10;;;15.50;99.90;;;;;;5021542;28;20218;-82
2023/08/07 09:18:27;;;;;;;0.10;0.10;;;15.60;99.90;;;;;;5026402;28;20189;-81
2023/08/07 09:20:53;;;;;;;0.10;0.10;;;15.60;99.90;;;;;;5011458;28;20320;-81
2023/08/07 09:23:19;;;;;;;0.10;0.10;;;15.50;99.90;;;;;;5012469;28;20188;-81
2023/08/07 09:25:45;;;;;;;0.10;0.10;;;15.50;99.90;;;;;;5010871;28;20539;-81
2023/08/07 09:28:11;;;;;;;0.10;0.10;;;15.50;99.90;;;;;;5011960;28;20217;-81
2023/08/07 09:30:38;;;;;;;0.10;0.10;;;15.60;99.90;;;;;;5009972;28;20214;-81
2023/08/07 09:33:04;;;;;;;0.10;0.10;;;15.50;99.90;;;;;;5027330;28;20239;-81
2023/08/07 09:35:32;;;;;;;0.10;0.10;;;15.60;99.90;;;;;;5014896;28;20713;-82
2023/08/07 09:37:58;;;;;;;0.10;0.10;;;15.60;99.90;;;;;;5016460;28;20276;-82
2023/08/07 09:40:24;;;;;;;0.10;0.10;;;15.60;99.90;;;;;;5011088;28;20209;-81
2023/08/07 09:42:54;;;;;;;0.10;0.10;;;15.70;99.90;;;;;;5011493;28;20189;-82
2023/08/07 09:45:25;;;;;;;0.10;0.10;;;15.80;99.90;;;;;;5011041;28;20631;-82
2023/08/07 09:48:23;;;;;;;0.10;0.10;;;15.80;99.90;;;;;;5011584;28;20181;-81
2023/08/07 09:50:48;;;;;;;0.10;0.10;;;15.80;99.90;;;;;;5010744;28;20745;-82
2023/08/07 09:53:14;;;;;;;0.10;0.10;;;15.90;99.90;;;;;;5012240;28;20194;-82
2023/08/07 09:55:39;;;;;;;0.10;0.10;;;16.10;99.90;;;;;;5013511;28;20203;-81
2023/08/07 09:58:08;;;;;;;0.10;0.10;;;16.10;99.90;;;;;;5017527;28;20193;-81
2023/08/07 10:00:37;;;;;;;0.10;0.10;;;16.10;99.90;;;;;;5016642;28;20208;-82
2023/08/07 10:03:04;;;;;;;0.10;0.10;;;16.20;99.90;;;;;;5014095;28;20743;-81
2023/08/07 10:05:30;;;;;;;0.10;0.10;;;16.30;99.90;;;;;;5013588;28;20557;-81
2023/08/07 10:07:57;;;;;;;0.10;0.10;;;16.30;99.90;;;;;;5011483;28;20612;-81
2023/08/07 10:10:25;;;;;;;0.10;0.10;;;16.20;99.90;;;;;;5001198;28;20196;-82
2023/08/07 10:12:51;;;;;;;0.10;0.10;;;16.30;99.90;;;;;;5001811;28;20190;-81
2023/08/07 10:15:18;;;;;;;0.10;0.10;;;16.40;99.90;;;;;;4996802;28;20840;-81
2023/08/07 10:17:43;;;;;;;0.00;0.00;;;16.50;99.90;;;;;;5002208;28;20301;-81
2023/08/07 10:20:09;;;;;;;0.10;0.10;;;16.50;99.90;;;;;;5003723;28;20269;-81
2023/08/07 10:22:38;;;;;;;0.10;0.10;;;16.70;99.90;;;;;;5002982;28;20179;-82
2023/08/07 10:25:06;;;;;;;0.00;0.00;;;16.80;99.90;;;;;;5002720;28;20187;-82
2023/08/07 10:27:36;;;;;;;0.00;0.00;;;17.10;99.90;;;;;;5017849;28;20652;-82
2023/08/07 10:30:06;;;;;;;0.10;0.10;;;17.30;99.90;;;;;;5018482;28;20186;-81
2023/08/07 10:32:32;;;;;;;0.10;0.10;;;17.30;99.90;;;;;;5019945;28;20306;-81
2023/08/07 10:34:58;;;;;;;0.10;0.10;;;17.20;99.90;;;;;;5002851;28;20182;-81
2023/08/07 10:37:34;;;;;;;0.10;0.10;;;17.30;99.90;;;;;;5007210;28;20257;-83
2023/08/07 10:40:09;;;;;;;0.10;0.10;;;17.30;99.90;;;;;;5001964;28;20238;-82
2023/08/07 10:42:58;;;;;;;0.00;0.00;;;17.40;99.90;;;;;;5002502;28;20181;-83
2023/08/07 10:45:24;;;;;;;0.10;0.10;;;17.40;99.90;;;;;;5001967;28;20202;-82
2023/08/07 10:48:10;;;;;;;0.10;0.10;;;17.50;99.90;;;;;;5018281;28;20186;-82
2023/08/07 10:50:46;;;;;;;0.10;0.10;;;17.60;99.90;;;;;;5003474;28;20281;-83
2023/08/07 10:53:20;;;;;;;0.10;0.10;;;17.40;99.90;;;;;;5000450;28;20610;-80
2023/08/07 10:55:46;;;;;;;0.10;0.10;;;17.40;99.90;;;;;;5005207;28;20202;-79
2023/08/07 10:58:23;;;;;;;0.10;0.10;;;17.40;99.90;;;;;;5006065;28;20210;-79
2023/08/07 11:01:12;;;;;;;0.10;0.10;;;17.40;99.90;;;;;;5003350;28;20206;-79
2023/08/07 11:03:42;;;;;;;0.10;0.10;;;17.60;99.90;;;;;;5005102;28;20183;-79
2023/08/07 11:06:09;;;;;;;0.10;0.10;;;17.60;99.90;;;;;;5020525;28;20210;-80
2023/08/07 11:08:35;;;;;;;0.10;0.10;;;17.70;99.90;;;;;;5005291;28;20179;-80
2023/08/07 11:11:04;;;;;;;0.10;0.10;;;17.70;99.90;;;;;;5002824;28;20191;-79
2023/08/07 11:13:30;;;;;;;0.10;0.10;;;17.90;99.90;;;;;;5018842;28;20183;-80
2023/08/07 11:15:56;;;;;;;0.10;0.10;;;18.00;99.90;;;;;;5005689;28;20236;-80
2023/08/07 11:18:22;;;;;;;0.20;0.20;;;18.10;99.90;;;;;;5006626;28;20258;-80
2023/08/07 11:20:48;;;;;;;0.10;0.10;;;18.50;99.90;;;;;;5025249;28;20207;-80
2023/08/07 11:23:13;;;;;;;0.10;0.10;;;18.70;99.90;;;;;;5010024;28;20304;-80
2023/08/07 11:25:41;;;;;;;0.10;0.10;;;18.80;99.90;;;;;;5025029;28;20424;-80
2023/08/07 11:28:08;;;;;;;0.10;0.10;;;18.80;99.90;;;;;;5008466;28;20183;-80
2023/08/07 11:30:35;;;;;;;0.10;0.10;;;19.00;99.90;;;;;;5007945;28;20617;-80
2023/08/07 11:33:00;;;;;;;0.10;0.10;;;18.90;99.90;;;;;;5005516;28;20191;-79
2023/08/07 11:35:26;;;;;;;0.10;0.10;;;18.80;99.90;;;;;;5006252;28;20574;-80
2023/08/07 11:37:54;;;;;;;0.10;0.10;;;18.70;99.90;;;;;;5008275;28;20195;-80
2023/08/07 11:40:19;;;;;;;0.10;0.10;;;19.10;99.90;;;;;;5008013;28;20266;-80
2023/08/07 11:42:45;;;;;;;0.10;0.10;;;19.00;99.90;;;;;;5006194;28;20263;-80
2023/08/07 11:45:10;;;;;;;0.10;0.10;;;19.00;99.90;;;;;;5007876;28;20203;-80
2023/08/07 11:47:36;;;;;;;0.10;0.10;;;19.00;99.90;;;;;;5009370;28;20292;-80
2023/08/07 11:50:02;;;;;;;0.10;0.10;;;18.90;99.90;;;;;;5003103;28;20206;-80
2023/08/07 11:52:28;;;;;;;0.10;0.10;;;18.90;99.90;;;;;;5021672;28;20221;-80
2023/08/07 11:54:53;;;;;;;0.10;0.10;;;19.00;99.90;;;;;;5005991;28;20672;-80
2023/08/07 11:57:22;;;;;;;0.10;0.10;;;19.10;99.90;;;;;;5007412;28;20191;-79
2023/08/07 11:59:50;;;;;;;0.10;0.10;;;18.90;99.90;;;;;;5006989;28;20202;-80
2023/08/07 12:02:16;;;;;;;0.10;0.10;;;18.60;99.90;;;;;;5007638;28;20218;-80
2023/08/07 12:04:41;;;;;;;0.10;0.10;;;18.70;99.90;;;;;;5005319;28;20221;-80
2023/08/07 12:07:10;;;;;;;0.10;0.10;;;18.90;99.90;;;;;;5010864;28;20264;-80
2023/08/07 12:09:36;;;;;;;0.10;0.10;;;19.00;99.90;;;;;;5010997;28;20575;-80
2023/08/07 12:12:03;;;;;;;0.10;0.10;;;19.30;99.90;;;;;;5024122;28;20210;-80
2023/08/07 12:14:31;;;;;;;0.10;0.10;;;19.50;99.90;;;;;;5021085;28;20198;-81
2023/08/07 12:16:57;;;;;;;0.10;0.10;;;19.70;99.90;;;;;;5005354;28;20226;-80
2023/08/07 12:19:22;;;;;;;0.10;0.10;;;19.90;99.90;;;;;;5007011;28;20210;-80
2023/08/07 12:21:48;;;;;;;0.10;0.10;;;19.90;99.90;;;;;;5004909;28;20224;-80
2023/08/07 12:24:13;;;;;;;0.10;0.10;;;19.90;99.90;;;;;;5005770;28;20229;-80
2023/08/07 12:26:39;;;;;;;0.10;0.10;;;19.70;99.90;;;;;;5006257;28;20234;-81
2023/08/07 12:29:05;;;;;;;0.10;0.10;;;19.80;99.90;;;;;;5006414;28;20631;-80
2023/08/07 12:31:30;;;;;;;0.10;0.10;;;19.60;99.90;;;;;;5005466;28;20214;-80
2023/08/07 12:33:56;;;;;;;0.10;0.10;;;19.50;99.90;;;;;;5004790;28;20192;-80
2023/08/07 12:36:21;;;;;;;0.10;0.10;;;19.30;99.90;;;;;;5002567;28;20346;-81
2023/08/07 12:38:47;;;;;;;0.10;0.10;;;19.70;99.90;;;;;;5003878;28;20193;-81
2023/08/07 12:41:14;;;;;;;0.10;0.10;;;20.20;99.90;;;;;;5003091;28;20210;-80
2023/08/07 12:43:39;;;;;;;0.10;0.10;;;20.20;99.90;;;;;;5003310;28;20548;-80
2023/08/07 12:46:05;;;;;;;0.10;0.10;;;20.30;99.90;;;;;;5006055;28;20207;-81